createdAt,value
2022-10-08T00:00:52.487Z,62.11
2022-10-08T00:03:20.721Z,62.22
2022-10-08T00:06:05.812Z,62.47
2022-10-08T00:08:36.033Z,62.08
2022-10-08T00:11:11.587Z,62.28
2022-10-08T00:13:40.755Z,62.51
2022-10-08T00:16:07.582Z,62.29
2022-10-08T00:18:34.547Z,62.14
2022-10-08T00:21:06.111Z,61.80
2022-10-08T00:23:34.237Z,61.89
2022-10-08T00:26:03.674Z,61.50
2022-10-08T00:28:30.637Z,61.31
2022-10-08T00:30:57.299Z,62.05
2022-10-08T00:33:23.961Z,62.14
2022-10-08T00:35:50.600Z,62.17
2022-10-08T00:38:17.300Z,61.80
2022-10-08T00:40:44.804Z,61.94
2022-10-08T00:43:16.457Z,61.39
2022-10-08T00:45:46.190Z,61.59
2022-10-08T00:48:25.846Z,61.67
2022-10-08T00:50:52.520Z,61.60
2022-10-08T00:53:19.703Z,61.67
2022-10-08T00:55:46.372Z,61.74
2022-10-08T00:58:16.659Z,61.60
2022-10-08T01:00:44.302Z,61.26
2022-10-08T01:03:11.066Z,61.52
2022-10-08T01:06:06.120Z,61.75
2022-10-08T01:08:41.697Z,61.90
2022-10-08T01:11:28.723Z,62.52
2022-10-08T01:14:22.342Z,62.77
2022-10-08T01:17:13.892Z,63.01
2022-10-08T01:19:58.992Z,62.24
2022-10-08T01:22:59.268Z,63.38
2022-10-08T01:25:56.699Z,63.30
2022-10-08T01:28:38.668Z,63.11
2022-10-08T01:31:17.859Z,63.69
2022-10-08T01:34:05.562Z,64.34
2022-10-08T01:36:38.569Z,63.82
2022-10-08T01:39:10.652Z,63.82
2022-10-08T01:41:38.996Z,63.72
2022-10-08T01:44:12.993Z,63.69
2022-10-08T01:46:42.781Z,63.36
2022-10-08T01:49:13.983Z,63.28
2022-10-08T01:51:47.110Z,62.52
2022-10-08T01:54:16.639Z,62.20
2022-10-08T01:56:46.426Z,62.65
2022-10-08T01:59:22.896Z,62.02
2022-10-08T02:01:57.775Z,61.59
2022-10-08T02:04:35.715Z,62.09
2022-10-08T02:07:04.819Z,62.06
2022-10-08T02:09:35.364Z,62.16
2022-10-08T02:12:02.359Z,62.56
2022-10-08T02:14:31.513Z,62.59
2022-10-08T02:17:16.585Z,62.51
2022-10-08T02:20:31.845Z,63.07
2022-10-08T02:23:26.151Z,62.07
2022-10-08T02:26:05.798Z,61.59
2022-10-08T02:28:50.195Z,61.95
2022-10-08T02:31:20.280Z,62.68
2022-10-08T02:33:56.177Z,62.73
2022-10-08T02:36:28.360Z,62.92
2022-10-08T02:39:01.296Z,63.55
2022-10-08T02:41:33.284Z,63.72
2022-10-08T02:44:06.145Z,63.38
2022-10-08T02:46:37.776Z,63.37
2022-10-08T02:49:14.956Z,63.53
2022-10-08T02:51:45.269Z,63.90
2022-10-08T02:54:12.561Z,64.00
2022-10-08T02:56:48.169Z,63.81
2022-10-08T02:59:17.968Z,63.27
2022-10-08T03:01:48.892Z,62.30
2022-10-08T03:04:21.194Z,61.98
2022-10-08T03:06:49.586Z,61.69
2022-10-08T03:09:18.118Z,62.04
2022-10-08T03:11:45.393Z,61.78
2022-10-08T03:14:15.403Z,61.70
2022-10-08T03:16:44.444Z,62.39
2022-10-08T03:19:14.184Z,62.44
2022-10-08T03:21:43.515Z,62.70
2022-10-08T03:24:11.994Z,62.75
2022-10-08T03:26:39.247Z,62.62
2022-10-08T03:29:06.022Z,62.58
2022-10-08T03:31:32.928Z,61.97
2022-10-08T03:33:59.646Z,62.18
2022-10-08T03:36:26.897Z,62.02
2022-10-08T03:38:53.514Z,62.27
2022-10-08T03:41:20.187Z,62.72
2022-10-08T03:43:46.830Z,62.16
2022-10-08T03:46:15.030Z,62.75
2022-10-08T03:48:42.743Z,62.15
2022-10-08T03:51:13.154Z,61.80
2022-10-08T03:53:42.217Z,61.75
2022-10-08T03:56:18.355Z,61.57
2022-10-08T03:58:46.096Z,61.14
2022-10-08T04:01:15.522Z,61.31
2022-10-08T04:03:44.151Z,61.29
2022-10-08T04:06:12.194Z,61.19
2022-10-08T04:08:38.910Z,61.13
2022-10-08T04:11:07.752Z,60.84
2022-10-08T04:13:35.766Z,61.30
2022-10-08T04:16:04.958Z,61.15
2022-10-08T04:18:32.039Z,60.68
2022-10-08T04:21:00.255Z,61.13
2022-10-08T04:23:27.615Z,60.84
2022-10-08T04:25:54.799Z,61.63
2022-10-08T04:28:22.739Z,61.99
2022-10-08T04:30:57.960Z,62.00
2022-10-08T04:33:25.337Z,62.07
2022-10-08T04:35:55.140Z,61.79
2022-10-08T04:38:25.711Z,62.93
2022-10-08T04:41:03.126Z,63.04
2022-10-08T04:43:29.901Z,63.85
2022-10-08T04:45:56.566Z,63.42
2022-10-08T04:48:23.229Z,62.73
2022-10-08T04:50:57.716Z,62.92
2022-10-08T04:53:25.689Z,63.20
2022-10-08T04:55:54.041Z,63.36
2022-10-08T04:58:21.857Z,63.82
2022-10-08T05:00:48.468Z,63.49
2022-10-08T05:03:15.221Z,63.09
2022-10-08T05:05:43.157Z,63.78
2022-10-08T05:08:11.399Z,64.95
2022-10-08T05:10:38.343Z,65.20
2022-10-08T05:13:05.065Z,64.46
2022-10-08T05:15:31.749Z,63.06
2022-10-08T05:17:58.413Z,62.22
2022-10-08T05:20:25.060Z,61.63
2022-10-08T05:22:51.675Z,61.62
2022-10-08T05:25:18.302Z,62.24
2022-10-08T05:27:44.887Z,63.17
2022-10-08T05:30:11.795Z,62.05
2022-10-08T05:32:39.055Z,62.85
2022-10-08T05:35:06.100Z,62.42
2022-10-08T05:37:33.201Z,62.68
2022-10-08T05:39:59.843Z,62.33
2022-10-08T05:42:26.708Z,62.71
2022-10-08T05:44:53.336Z,62.92
2022-10-08T05:47:20.020Z,62.14
2022-10-08T05:49:46.632Z,62.55
2022-10-08T05:52:13.272Z,61.46
2022-10-08T05:54:39.942Z,62.27
2022-10-08T05:57:06.581Z,62.49
2022-10-08T05:59:33.244Z,62.41
2022-10-08T06:01:59.952Z,61.86
2022-10-08T06:04:26.847Z,61.18
2022-10-08T06:06:53.535Z,61.10
2022-10-08T06:09:21.066Z,60.85
2022-10-08T06:11:48.641Z,60.64
2022-10-08T06:14:17.056Z,60.53
2022-10-08T06:16:44.038Z,60.08
2022-10-08T06:19:10.721Z,60.07
2022-10-08T06:21:37.454Z,60.08
2022-10-08T06:24:07.215Z,60.35
2022-10-08T06:26:37.000Z,60.25
2022-10-08T06:29:09.969Z,60.60
2022-10-08T06:31:36.929Z,60.24
2022-10-08T06:34:04.612Z,59.91
2022-10-08T06:36:33.138Z,60.03
2022-10-08T06:39:01.918Z,59.45
2022-10-08T06:41:30.457Z,59.24
2022-10-08T06:43:57.175Z,58.67
2022-10-08T06:46:23.863Z,57.49
2022-10-08T06:48:50.553Z,57.15
2022-10-08T06:51:18.589Z,57.86
2022-10-08T06:53:51.276Z,57.91
2022-10-08T06:56:18.098Z,57.82
2022-10-08T06:58:45.152Z,57.38
2022-10-08T07:01:30.322Z,56.62
2022-10-08T07:04:00.598Z,54.97
2022-10-08T07:06:27.994Z,53.55
2022-10-08T07:08:56.740Z,52.06
2022-10-08T07:11:24.291Z,50.59
2022-10-08T07:13:51.191Z,49.00
2022-10-08T07:16:23.594Z,46.74
2022-10-08T07:18:52.082Z,45.85
2022-10-08T07:21:21.049Z,44.39
2022-10-08T07:23:47.942Z,42.20
2022-10-08T07:26:20.040Z,40.03
2022-10-08T07:29:01.399Z,39.35
2022-10-08T07:31:31.256Z,38.13
2022-10-08T07:33:59.814Z,36.72
2022-10-08T07:36:28.278Z,34.56
2022-10-08T07:38:55.701Z,33.68
2022-10-08T07:41:22.598Z,32.13
2022-10-08T07:43:54.183Z,31.89
2022-10-08T07:46:21.669Z,32.75
2022-10-08T07:48:48.365Z,31.77
2022-10-08T07:51:17.385Z,31.29
2022-10-08T07:53:44.657Z,33.73
2022-10-08T07:56:13.511Z,34.52
2022-10-08T07:58:40.647Z,36.11
2022-10-08T08:01:11.471Z,36.16
2022-10-08T08:03:38.310Z,36.59
2022-10-08T08:06:12.195Z,38.87
2022-10-08T08:08:40.765Z,39.26
2022-10-08T08:11:09.203Z,40.50
2022-10-08T08:13:37.665Z,42.80
2022-10-08T08:16:08.793Z,44.07
2022-10-08T08:18:38.341Z,44.56
2022-10-08T08:21:07.671Z,44.29
2022-10-08T08:23:39.503Z,43.98
2022-10-08T08:26:09.608Z,44.70
2022-10-08T08:28:36.495Z,44.08
2022-10-08T08:31:17.959Z,43.42
2022-10-08T08:33:50.908Z,42.22
2022-10-08T08:36:18.966Z,40.64
2022-10-08T08:38:46.462Z,38.01
2022-10-08T08:41:36.224Z,33.07
2022-10-08T08:44:10.504Z,31.08
2022-10-08T08:46:41.067Z,30.06
2022-10-08T08:49:23.286Z,30.31
2022-10-08T08:51:51.083Z,31.53
2022-10-08T08:54:17.777Z,33.30
2022-10-08T08:56:44.562Z,32.61
2022-10-08T08:59:25.349Z,32.24
2022-10-08T09:01:56.341Z,33.12
2022-10-08T09:04:35.173Z,32.00
2022-10-08T09:07:05.606Z,30.07
2022-10-08T09:09:38.971Z,27.09
2022-10-08T09:12:30.017Z,27.51
2022-10-08T09:14:59.921Z,30.63
2022-10-08T09:17:53.000Z,33.07
2022-10-08T09:20:24.070Z,34.13
2022-10-08T09:22:53.916Z,37.07
2022-10-08T09:25:23.953Z,36.72
2022-10-08T09:28:00.944Z,37.93
2022-10-08T09:30:38.246Z,38.64
2022-10-08T09:33:18.541Z,39.28
2022-10-08T09:35:49.108Z,39.61
2022-10-08T09:38:27.368Z,41.19
2022-10-08T09:41:28.703Z,41.33
2022-10-08T09:44:09.017Z,42.17
2022-10-08T09:46:35.711Z,42.37
2022-10-08T09:49:27.424Z,42.42
2022-10-08T09:51:56.292Z,42.75
2022-10-08T09:54:35.131Z,43.99
2022-10-08T09:57:02.894Z,43.08
2022-10-08T09:59:36.187Z,43.75
2022-10-08T10:02:07.690Z,43.46
2022-10-08T10:04:36.891Z,42.72
2022-10-08T10:07:05.344Z,41.70
2022-10-08T10:09:43.707Z,42.36
2022-10-08T10:12:33.176Z,40.71
2022-10-08T10:15:05.344Z,40.74
2022-10-08T10:17:40.297Z,39.00
2022-10-08T10:20:17.965Z,38.57
2022-10-08T10:22:56.271Z,37.70
2022-10-08T10:25:28.863Z,36.43
2022-10-08T10:28:01.687Z,36.40
2022-10-08T10:30:29.177Z,34.98
2022-10-08T10:33:07.045Z,35.27
2022-10-08T10:35:40.198Z,35.62
2022-10-08T10:38:09.508Z,36.68
2022-10-08T10:40:42.336Z,36.21
2022-10-08T10:43:18.193Z,35.38
2022-10-08T10:45:51.946Z,35.69
2022-10-08T10:48:18.654Z,35.22
2022-10-08T10:51:04.034Z,35.38
2022-10-08T10:53:39.477Z,33.79
2022-10-08T10:56:19.139Z,34.36
2022-10-08T10:59:17.922Z,33.56
2022-10-08T11:01:59.573Z,34.40
2022-10-08T11:04:44.411Z,33.94
2022-10-08T11:07:43.312Z,32.00
2022-10-08T11:10:18.743Z,31.88
2022-10-08T11:12:51.681Z,32.31
2022-10-08T11:15:28.867Z,30.81
2022-10-08T11:18:06.896Z,31.28
2022-10-08T11:20:58.074Z,32.63
2022-10-08T11:23:45.375Z,33.04
2022-10-08T11:26:22.007Z,34.72
2022-10-08T11:29:14.460Z,34.91
2022-10-08T11:31:42.431Z,34.77
2022-10-08T11:34:20.198Z,33.85
2022-10-08T11:37:05.104Z,34.21
2022-10-08T11:39:51.766Z,33.53
2022-10-08T11:42:27.621Z,33.04
2022-10-08T11:44:54.370Z,31.66
2022-10-08T11:47:36.160Z,28.79
2022-10-08T11:50:05.750Z,28.08
2022-10-08T11:52:33.671Z,27.77
2022-10-08T11:55:04.544Z,28.60
2022-10-08T11:57:55.798Z,29.77
2022-10-08T12:00:45.090Z,28.73
2022-10-08T12:03:21.082Z,29.58
2022-10-08T12:05:53.128Z,31.58
2022-10-08T12:08:48.146Z,32.83
2022-10-08T12:11:37.856Z,33.96
2022-10-08T12:14:13.550Z,34.90
2022-10-08T12:17:03.205Z,34.56
2022-10-08T12:19:32.903Z,35.48
2022-10-08T12:22:06.773Z,36.15
2022-10-08T12:24:39.253Z,35.77
2022-10-08T12:27:18.088Z,35.70
2022-10-08T12:30:11.947Z,35.61
2022-10-08T12:32:41.621Z,35.61
2022-10-08T12:35:46.741Z,37.41
2022-10-08T12:38:16.282Z,37.95
2022-10-08T12:41:07.423Z,37.97
2022-10-08T12:43:45.344Z,39.24
2022-10-08T12:46:20.807Z,40.19
2022-10-08T12:48:52.415Z,40.05
2022-10-08T12:51:37.440Z,40.24
2022-10-08T12:54:04.607Z,39.49
2022-10-08T12:56:31.905Z,38.90
2022-10-08T12:59:03.030Z,38.64
2022-10-08T13:01:30.148Z,37.81
2022-10-08T13:04:18.926Z,37.56
2022-10-08T13:06:46.652Z,36.61
2022-10-08T13:09:25.485Z,36.24
2022-10-08T13:11:57.195Z,35.43
2022-10-08T13:14:38.579Z,36.42
2022-10-08T13:17:06.037Z,35.53
2022-10-08T13:19:35.590Z,35.56
2022-10-08T13:22:22.153Z,33.89
2022-10-08T13:24:48.743Z,32.94
2022-10-08T13:27:27.346Z,34.23
2022-10-08T13:29:55.642Z,34.03
2022-10-08T13:32:25.786Z,33.97
2022-10-08T13:34:57.171Z,34.51
2022-10-08T13:37:36.668Z,34.52
2022-10-08T13:40:09.108Z,33.27
2022-10-08T13:42:41.428Z,33.44
2022-10-08T13:45:22.918Z,33.30
2022-10-08T13:47:50.898Z,32.94
2022-10-08T13:50:18.844Z,33.96
2022-10-08T13:52:51.212Z,34.27
2022-10-08T13:55:26.748Z,34.54
2022-10-08T13:57:59.844Z,33.81
2022-10-08T14:00:27.542Z,35.14
2022-10-08T14:02:54.300Z,34.73
2022-10-08T14:05:22.219Z,33.96
2022-10-08T14:07:52.916Z,35.08
2022-10-08T14:10:19.698Z,33.78
2022-10-08T14:12:46.695Z,34.51
2022-10-08T14:15:15.094Z,34.49
2022-10-08T14:17:41.816Z,34.05
2022-10-08T14:20:09.444Z,34.57
2022-10-08T14:22:39.137Z,34.53
2022-10-08T14:25:20.013Z,35.29
2022-10-08T14:27:47.217Z,35.27
2022-10-08T14:30:15.804Z,35.52
2022-10-08T14:32:42.648Z,35.14
2022-10-08T14:35:11.405Z,35.47
2022-10-08T14:37:38.766Z,35.98
2022-10-08T14:40:07.320Z,36.40
2022-10-08T14:42:33.939Z,36.55
2022-10-08T14:45:01.510Z,37.61
2022-10-08T14:47:28.120Z,38.71
2022-10-08T14:49:54.764Z,39.16
2022-10-08T14:52:21.482Z,39.13
2022-10-08T14:54:48.058Z,39.09
2022-10-08T14:57:14.679Z,39.22
2022-10-08T14:59:41.457Z,39.49
2022-10-08T15:02:10.893Z,39.26
2022-10-08T15:04:38.087Z,39.35
2022-10-08T15:07:04.977Z,39.67
2022-10-08T15:09:31.772Z,39.48
2022-10-08T15:11:58.477Z,40.11
2022-10-08T15:14:25.533Z,39.56
2022-10-08T15:16:52.313Z,39.52
2022-10-08T15:19:23.455Z,39.37
2022-10-08T15:21:51.109Z,38.81
2022-10-08T15:24:17.835Z,38.88
2022-10-08T15:26:44.714Z,37.82
2022-10-08T15:29:11.740Z,37.42
2022-10-08T15:31:38.427Z,37.69
2022-10-08T15:34:05.201Z,38.21
2022-10-08T15:36:36.139Z,37.88
2022-10-08T15:39:15.003Z,37.18
2022-10-08T15:41:44.698Z,37.32
2022-10-08T15:44:18.905Z,36.80
2022-10-08T15:46:50.188Z,38.20
2022-10-08T15:49:16.940Z,36.65
2022-10-08T15:51:43.609Z,36.85
2022-10-08T15:54:10.212Z,36.58
2022-10-08T15:56:37.052Z,36.51
2022-10-08T15:59:04.030Z,36.36
2022-10-08T16:01:31.090Z,36.40
2022-10-08T16:03:58.713Z,36.22
2022-10-08T16:06:35.831Z,36.25
2022-10-08T16:09:03.495Z,35.56
2022-10-08T16:11:32.286Z,35.93
2022-10-08T16:14:26.513Z,36.17
2022-10-08T16:16:53.960Z,36.74
2022-10-08T16:19:23.674Z,36.28
2022-10-08T16:21:52.009Z,36.88
2022-10-08T16:24:18.812Z,36.97
2022-10-08T16:26:46.940Z,37.62
2022-10-08T16:29:15.149Z,37.31
2022-10-08T16:31:43.981Z,37.52
2022-10-08T16:34:21.555Z,38.62
2022-10-08T16:36:49.321Z,39.20
2022-10-08T16:39:18.129Z,39.13
2022-10-08T16:41:45.416Z,39.27
2022-10-08T16:44:18.317Z,39.81
2022-10-08T16:46:50.743Z,39.94
2022-10-08T16:49:30.298Z,39.84
2022-10-08T16:52:04.550Z,40.14
2022-10-08T16:54:31.856Z,40.41
2022-10-08T16:56:58.772Z,40.71
2022-10-08T16:59:27.159Z,40.67
2022-10-08T17:01:57.406Z,40.78
2022-10-08T17:04:25.860Z,41.01
2022-10-08T17:06:52.656Z,42.60
2022-10-08T17:09:20.408Z,42.58
2022-10-08T17:11:47.903Z,43.11
2022-10-08T17:14:14.533Z,44.21
2022-10-08T17:16:43.433Z,45.06
2022-10-08T17:19:10.357Z,45.13
2022-10-08T17:21:37.155Z,45.21
2022-10-08T17:24:03.929Z,44.96
2022-10-08T17:26:31.629Z,45.66
2022-10-08T17:29:03.640Z,46.47
2022-10-08T17:31:31.676Z,46.17
2022-10-08T17:33:59.502Z,46.33
2022-10-08T17:36:29.176Z,46.92
2022-10-08T17:38:58.518Z,47.34
2022-10-08T17:41:29.592Z,47.34
2022-10-08T17:43:57.890Z,47.26
2022-10-08T17:46:30.201Z,47.18
2022-10-08T17:48:57.147Z,47.41
2022-10-08T17:51:26.552Z,48.86
2022-10-08T17:54:04.758Z,49.71
2022-10-08T17:56:32.219Z,49.55
2022-10-08T17:58:59.422Z,49.76
2022-10-08T18:01:30.937Z,50.36
2022-10-08T18:04:01.261Z,50.45
2022-10-08T18:06:29.632Z,50.86
2022-10-08T18:08:58.010Z,50.17
2022-10-08T18:11:25.639Z,50.09
2022-10-08T18:13:52.327Z,50.33
2022-10-08T18:16:20.072Z,50.21
2022-10-08T18:18:47.510Z,50.14
2022-10-08T18:21:16.725Z,51.55
2022-10-08T18:23:43.796Z,51.47
2022-10-08T18:26:20.269Z,51.87
2022-10-08T18:28:50.458Z,51.79
2022-10-08T18:31:18.780Z,52.22
2022-10-08T18:33:47.926Z,52.86
2022-10-08T18:36:18.875Z,52.59
2022-10-08T18:38:47.248Z,52.74
2022-10-08T18:41:19.046Z,52.58
2022-10-08T18:43:46.853Z,53.12
2022-10-08T18:46:15.550Z,53.15
2022-10-08T18:48:42.694Z,53.05
2022-10-08T18:51:11.387Z,53.86
2022-10-08T18:53:40.462Z,53.84
2022-10-08T18:56:10.160Z,53.58
2022-10-08T18:58:38.050Z,53.31
2022-10-08T19:01:05.894Z,53.21
2022-10-08T19:03:32.988Z,53.27
2022-10-08T19:05:59.645Z,53.03
2022-10-08T19:08:26.260Z,53.27
2022-10-08T19:10:52.861Z,53.57
2022-10-08T19:13:19.983Z,54.19
2022-10-08T19:15:46.832Z,54.26
2022-10-08T19:18:13.621Z,54.63
2022-10-08T19:20:40.248Z,55.03
2022-10-08T19:23:06.817Z,54.86
2022-10-08T19:25:35.314Z,54.98
2022-10-08T19:28:02.100Z,55.79
2022-10-08T19:30:34.001Z,55.93
2022-10-08T19:33:01.047Z,55.56
2022-10-08T19:35:28.026Z,55.77
2022-10-08T19:37:54.791Z,55.65
2022-10-08T19:40:21.715Z,55.93
2022-10-08T19:42:48.555Z,55.40
2022-10-08T19:45:15.480Z,55.26
2022-10-08T19:47:42.257Z,55.77
2022-10-08T19:50:09.167Z,55.47
2022-10-08T19:52:35.818Z,55.23
2022-10-08T19:55:02.503Z,55.03
2022-10-08T19:57:29.129Z,55.02
2022-10-08T19:59:55.774Z,55.37
2022-10-08T20:02:22.656Z,55.17
2022-10-08T20:04:49.296Z,55.18
2022-10-08T20:07:15.970Z,55.34
2022-10-08T20:09:42.590Z,55.47
2022-10-08T20:12:09.832Z,55.39
2022-10-08T20:14:36.406Z,56.28
2022-10-08T20:17:03.045Z,56.50
2022-10-08T20:19:29.753Z,56.81
2022-10-08T20:21:56.364Z,56.87
2022-10-08T20:24:23.011Z,56.42
2022-10-08T20:26:50.054Z,56.29
2022-10-08T20:29:19.896Z,56.59
2022-10-08T20:31:54.174Z,56.19
2022-10-08T20:34:23.743Z,55.60
2022-10-08T20:36:50.542Z,55.47
2022-10-08T20:39:19.592Z,56.54
2022-10-08T20:41:46.562Z,56.11
2022-10-08T20:44:13.922Z,56.89
2022-10-08T20:46:40.905Z,57.05
2022-10-08T20:49:07.957Z,57.03
2022-10-08T20:51:37.777Z,57.21
2022-10-08T20:54:07.545Z,57.45
2022-10-08T20:56:39.476Z,57.02
2022-10-08T20:59:07.091Z,56.92
2022-10-08T21:01:37.625Z,56.60
2022-10-08T21:04:05.586Z,56.23
2022-10-08T21:06:38.167Z,56.10
2022-10-08T21:09:05.270Z,55.84
2022-10-08T21:11:32.348Z,55.87
2022-10-08T21:14:01.432Z,55.46
2022-10-08T21:16:31.669Z,55.33
2022-10-08T21:19:03.680Z,55.32
2022-10-08T21:21:32.119Z,55.09
2022-10-08T21:23:59.646Z,54.94
2022-10-08T21:26:29.028Z,54.85
2022-10-08T21:28:58.088Z,54.59
2022-10-08T21:31:26.481Z,54.22
2022-10-08T21:33:54.328Z,54.20
2022-10-08T21:36:23.818Z,54.46
2022-10-08T21:38:50.713Z,55.19
2022-10-08T21:41:19.738Z,54.63
2022-10-08T21:43:48.972Z,54.70
2022-10-08T21:46:18.146Z,55.61
2022-10-08T21:48:45.048Z,55.98
2022-10-08T21:51:17.784Z,56.01
2022-10-08T21:53:47.319Z,55.85
2022-10-08T21:56:16.967Z,55.51
2022-10-08T21:58:48.874Z,55.30
2022-10-08T22:01:20.417Z,55.29
2022-10-08T22:03:47.304Z,54.92
2022-10-08T22:06:13.944Z,54.88
2022-10-08T22:08:40.546Z,55.27
2022-10-08T22:11:07.283Z,54.90
2022-10-08T22:13:33.993Z,54.92
2022-10-08T22:16:02.971Z,54.73
2022-10-08T22:18:32.297Z,54.96
2022-10-08T22:21:08.316Z,55.27
2022-10-08T22:23:35.814Z,55.79
2022-10-08T22:26:07.987Z,55.58
2022-10-08T22:28:35.705Z,56.26
2022-10-08T22:31:03.933Z,56.67
2022-10-08T22:33:30.883Z,56.12
2022-10-08T22:36:20.578Z,56.02
2022-10-08T22:38:47.999Z,55.98
2022-10-08T22:41:23.734Z,56.34
2022-10-08T22:43:50.984Z,56.29
2022-10-08T22:46:28.120Z,57.05
2022-10-08T22:49:07.378Z,56.42
2022-10-08T22:51:34.621Z,56.99
2022-10-08T22:54:01.301Z,56.55
2022-10-08T22:56:29.746Z,56.92
2022-10-08T22:58:58.775Z,56.92
2022-10-08T23:01:26.904Z,57.59
2022-10-08T23:03:54.107Z,57.77
2022-10-08T23:06:22.828Z,57.52
2022-10-08T23:08:55.318Z,57.80
2022-10-08T23:11:22.143Z,57.74
2022-10-08T23:13:53.828Z,57.48
2022-10-08T23:16:20.868Z,56.97
2022-10-08T23:18:53.638Z,56.89
2022-10-08T23:21:20.293Z,57.15
2022-10-08T23:23:48.224Z,56.67
2022-10-08T23:26:16.206Z,57.12
2022-10-08T23:28:45.054Z,57.29
2022-10-08T23:31:15.200Z,56.82
2022-10-08T23:33:44.358Z,56.88
2022-10-08T23:36:14.195Z,57.15
2022-10-08T23:38:41.077Z,56.98
2022-10-08T23:41:10.018Z,57.44
2022-10-08T23:43:47.845Z,57.12
2022-10-08T23:46:17.119Z,57.56
2022-10-08T23:48:44.364Z,57.26
2022-10-08T23:51:12.560Z,58.00
2022-10-08T23:53:40.136Z,57.98
2022-10-08T23:56:07.649Z,57.81
2022-10-08T23:58:34.413Z,57.55
